Time;durP1;ratioP1;P1;durP2;ratioP2;P2;SDS_P1;SDS_P2;PMS_P1;PMS_P2;Temp;Humidity;BMP_temperature;BMP_pressure;BME280_temperature;BME280_humidity;BME280_pressure;Samples;Min_cycle;Max_cycle;Signal;HPM_P1;HPM_P2
2024/01/14 00:02:31;;;;;;;17.73;13.23;;;;;;;1.45;74.18;100192.69;10374313;28;20050;-62
2024/01/14 00:07:32;;;;;;;19.48;14.38;;;;;;;1.57;73.94;100179.03;10397305;28;20049;-63
2024/01/14 00:12:34;;;;;;;17.15;13.02;;;;;;;1.47;73.82;100167.22;10392852;28;20057;-62
2024/01/14 00:17:35;;;;;;;16.58;12.30;;;;;;;1.64;73.56;100177.84;10391979;28;20055;-63
2024/01/14 00:22:38;;;;;;;16.23;12.90;;;;;;;1.55;73.60;100165.97;10327565;28;20057;-64
2024/01/14 00:27:40;;;;;;;18.40;12.68;;;;;;;1.66;73.95;100167.28;10385759;28;20122;-64
2024/01/14 00:32:41;;;;;;;17.23;12.65;;;;;;;1.68;73.82;100157.56;10384193;28;20661;-62
2024/01/14 00:37:43;;;;;;;18.33;13.10;;;;;;;1.62;73.93;100144.72;10403523;28;21344;-62
2024/01/14 00:42:45;;;;;;;20.52;13.55;;;;;;;1.51;74.65;100140.78;10398671;28;20091;-63
2024/01/14 00:47:46;;;;;;;19.20;13.40;;;;;;;1.45;74.32;100142.84;10382787;28;20050;-64
2024/01/14 00:52:51;;;;;;;18.25;12.35;;;;;;;1.51;73.98;100153.91;10355313;28;20048;-63
2024/01/14 00:57:52;;;;;;;17.53;12.10;;;;;;;1.54;73.81;100158.19;10392832;28;20061;-64
2024/01/14 01:02:55;;;;;;;20.58;12.70;;;;;;;1.37;74.26;100135.31;10361953;28;21032;-63
2024/01/14 01:07:57;;;;;;;19.15;12.88;;;;;;;1.38;74.24;100130.00;10371045;28;20061;-63
2024/01/14 01:12:59;;;;;;;20.80;13.07;;;;;;;1.42;73.77;100123.69;10371633;28;20138;-62
2024/01/14 01:18:00;;;;;;;17.02;12.55;;;;;;;1.34;74.38;100128.44;10395180;28;20507;-63
2024/01/14 01:23:02;;;;;;;17.95;13.60;;;;;;;1.27;75.48;100119.13;10394315;28;20045;-65
2024/01/14 01:28:09;;;;;;;18.65;13.57;;;;;;;1.14;76.39;100091.75;10390490;28;20585;-62
2024/01/14 01:33:10;;;;;;;21.13;14.13;;;;;;;1.13;76.56;100083.03;10366703;28;20049;-63
2024/01/14 01:38:13;;;;;;;20.90;13.55;;;;;;;1.26;77.19;100106.94;10373705;28;20172;-63
2024/01/14 01:43:14;;;;;;;18.00;12.82;;;;;;;1.10;77.64;100098.06;10386073;28;20649;-64
2024/01/14 01:48:19;;;;;;;18.80;13.05;;;;;;;1.11;78.86;100098.00;10381823;28;20052;-62
2024/01/14 01:53:24;;;;;;;22.52;15.10;;;;;;;0.96;79.90;100098.63;10340568;28;20075;-63
2024/01/14 01:58:25;;;;;;;21.47;14.13;;;;;;;0.87;81.68;100099.88;10391077;28;20262;-62
2024/01/14 02:03:33;;;;;;;22.13;14.07;;;;;;;0.91;82.42;100090.97;10345329;28;20051;-63
2024/01/14 02:08:36;;;;;;;23.27;15.63;;;;;;;0.77;83.45;100081.09;10370053;28;20064;-63
2024/01/14 02:13:37;;;;;;;21.40;14.77;;;;;;;0.86;83.92;100080.69;10380783;28;20072;-64
2024/01/14 02:18:39;;;;;;;23.27;15.30;;;;;;;0.72;83.86;100069.09;10353333;28;20456;-63
2024/01/14 02:23:45;;;;;;;25.25;16.52;;;;;;;0.81;84.52;100074.81;10352552;28;20113;-63
2024/01/14 02:28:48;;;;;;;25.00;16.83;;;;;;;0.94;83.90;100077.72;10372867;28;20048;-62
2024/01/14 02:33:49;;;;;;;24.40;14.88;;;;;;;0.88;83.48;100062.28;10362891;28;20185;-63
2024/01/14 02:38:51;;;;;;;21.73;15.48;;;;;;;0.83;83.03;100079.97;10340794;28;20067;-62
2024/01/14 02:43:52;;;;;;;23.63;15.75;;;;;;;0.88;82.88;100070.97;10341375;28;20196;-65
2024/01/14 02:48:55;;;;;;;23.52;16.58;;;;;;;0.99;82.65;100070.53;10359170;28;20467;-62
2024/01/14 02:53:57;;;;;;;20.77;14.60;;;;;;;0.98;82.41;100060.97;10366297;28;20053;-62
2024/01/14 02:58:58;;;;;;;25.10;16.05;;;;;;;0.87;82.33;100053.56;10399763;28;20160;-63
2024/01/14 03:04:00;;;;;;;22.85;15.98;;;;;;;0.76;83.35;100054.97;10398076;28;20056;-63
2024/01/14 03:09:07;;;;;;;22.77;15.30;;;;;;;0.72;83.57;100053.38;10400878;28;20052;-62
2024/01/14 03:14:09;;;;;;;23.10;15.87;;;;;;;0.79;83.07;100039.09;10399102;28;20052;-63
2024/01/14 03:19:10;;;;;;;23.77;15.88;;;;;;;0.84;83.17;100031.88;10373372;28;20044;-63
2024/01/14 03:24:14;;;;;;;25.70;15.93;;;;;;;0.88;82.86;100017.72;10398376;28;20053;-63
2024/01/14 03:29:16;;;;;;;23.10;16.27;;;;;;;0.81;82.76;100011.91;10397895;28;20230;-63
2024/01/14 03:34:17;;;;;;;25.23;16.33;;;;;;;0.59;82.53;100003.28;10374423;28;20151;-63
2024/01/14 03:39:20;;;;;;;25.08;16.13;;;;;;;0.65;82.41;100014.34;10365010;28;20873;-62
2024/01/14 03:44:22;;;;;;;22.65;14.02;;;;;;;0.71;83.23;100010.63;10355473;28;20624;-65
2024/01/14 03:49:23;;;;;;;23.13;15.85;;;;;;;0.76;82.54;100013.03;10400435;28;20134;-63
2024/01/14 03:54:25;;;;;;;25.13;16.38;;;;;;;0.83;82.02;100009.22;10395807;28;20662;-63
2024/01/14 03:59:27;;;;;;;22.90;15.23;;;;;;;0.73;82.08;99995.66;10396305;28;20127;-63
2024/01/14 04:04:28;;;;;;;25.98;16.33;;;;;;;0.68;82.26;99967.06;10377698;28;20493;-62
2024/01/14 04:09:30;;;;;;;24.05;15.35;;;;;;;0.56;82.79;99959.75;10394542;28;20052;-63
2024/01/14 04:14:33;;;;;;;26.40;16.67;;;;;;;0.48;83.05;99938.25;10377127;28;20053;-64
2024/01/14 04:19:35;;;;;;;26.15;15.20;;;;;;;0.30;83.03;99901.50;10374895;28;21077;-64
2024/01/14 04:24:36;;;;;;;24.30;15.77;;;;;;;0.42;82.73;99925.44;10397177;28;20060;-64
2024/01/14 04:29:38;;;;;;;21.10;14.23;;;;;;;0.48;82.60;99939.13;10399039;28;20143;-63
2024/01/14 04:34:39;;;;;;;24.17;15.20;;;;;;;0.53;82.24;99939.75;10401486;28;20056;-63
2024/01/14 04:39:41;;;;;;;24.35;14.77;;;;;;;0.58;82.34;99941.34;10395701;28;20064;-63
2024/01/14 04:44:43;;;;;;;21.60;14.65;;;;;;;0.64;81.69;99936.66;10401221;28;20049;-63
2024/01/14 04:49:44;;;;;;;21.95;15.27;;;;;;;0.75;80.99;99932.72;10377119;28;20765;-63
2024/01/14 04:54:46;;;;;;;23.15;13.60;;;;;;;0.94;80.94;99943.22;10373120;28;20049;-62
2024/01/14 04:59:47;;;;;;;19.63;14.05;;;;;;;0.98;79.93;99948.25;10391636;28;20045;-64
2024/01/14 05:04:50;;;;;;;24.38;15.52;;;;;;;1.01;79.72;99944.66;10387274;28;20060;-63
2024/01/14 05:09:52;;;;;;;25.30;17.75;;;;;;;0.77;80.22;99933.50;10393031;28;20134;-62
2024/01/14 05:14:53;;;;;;;27.85;17.67;;;;;;;0.46;80.80;99917.38;10395783;28;22270;-63
2024/01/14 05:19:56;;;;;;;26.05;16.60;;;;;;;0.60;81.22;99916.78;10377777;28;20499;-64
2024/01/14 05:24:57;;;;;;;25.63;16.48;;;;;;;0.60;80.88;99918.53;10398028;28;20744;-63
2024/01/14 05:29:59;;;;;;;24.85;16.60;;;;;;;0.62;80.54;99906.22;10365002;28;20077;-63
2024/01/14 05:35:01;;;;;;;23.80;15.40;;;;;;;0.50;80.88;99892.75;10379270;28;20053;-64
2024/01/14 05:40:04;;;;;;;24.73;15.60;;;;;;;0.32;81.54;99870.84;10377196;28;20167;-63
2024/01/14 05:45:12;;;;;;;22.42;15.55;;;;;;;0.33;81.53;99880.41;10377267;28;20098;-63
2024/01/14 05:50:14;;;;;;;22.25;15.05;;;;;;;0.23;82.33;99894.81;10398868;28;20045;-64
2024/01/14 05:55:15;;;;;;;24.20;15.15;;;;;;;0.38;81.39;99895.09;10393912;28;20751;-62
2024/01/14 06:00:22;;;;;;;23.17;15.85;;;;;;;0.46;80.59;99913.91;10362220;28;20641;-63
2024/01/14 06:05:24;;;;;;;31.08;16.52;;;;;;;0.09;80.79;99860.53;10391140;28;20049;-63
2024/01/14 06:10:26;;;;;;;27.27;17.42;;;;;;;0.33;80.89;99914.47;10377202;28;20044;-65
2024/01/14 06:15:28;;;;;;;28.73;15.88;;;;;;;0.41;80.60;99905.41;10397333;28;20048;-63
2024/01/14 06:20:30;;;;;;;27.10;16.58;;;;;;;0.33;81.16;99901.38;10401805;28;20048;-63
2024/01/14 06:25:31;;;;;;;24.88;15.77;;;;;;;0.31;80.69;99892.72;10401931;28;20802;-64
2024/01/14 06:30:34;;;;;;;24.02;16.30;;;;;;;0.29;80.64;99894.56;10364386;28;21282;-64
2024/01/14 06:35:36;;;;;;;25.88;16.15;;;;;;;0.40;80.57;99920.25;10396045;28;20186;-64
2024/01/14 06:40:38;;;;;;;26.00;15.38;;;;;;;0.45;80.68;99901.72;10378264;28;20079;-63
2024/01/14 06:45:44;;;;;;;23.33;15.48;;;;;;;0.58;79.85;99910.75;10384011;28;20048;-63
2024/01/14 06:50:48;;;;;;;27.40;16.77;;;;;;;0.56;79.21;99907.34;10405185;28;20051;-62
2024/01/14 06:55:49;;;;;;;23.95;16.42;;;;;;;0.58;79.43;99895.03;10374221;28;20068;-63
2024/01/14 07:00:51;;;;;;;29.50;18.23;;;;;;;0.51;79.86;99902.31;10351412;28;20749;-63
2024/01/14 07:05:54;;;;;;;28.98;18.95;;;;;;;0.50;78.99;99881.44;10376840;28;20131;-63
2024/01/14 07:10:55;;;;;;;29.05;19.77;;;;;;;0.38;79.57;99897.69;10404695;28;20048;-62
2024/01/14 07:15:56;;;;;;;36.50;22.30;;;;;;;0.21;80.55;99886.19;10384562;28;20048;-66
2024/01/14 07:20:58;;;;;;;34.30;21.35;;;;;;;0.28;79.99;99863.19;10404385;28;20059;-64
2024/01/14 07:26:00;;;;;;;40.15;23.60;;;;;;;0.22;79.77;99866.94;10382371;28;20128;-65
2024/01/14 07:31:02;;;;;;;35.47;21.15;;;;;;;0.25;79.79;99879.03;10363723;28;20107;-64
2024/01/14 07:36:05;;;;;;;35.45;21.02;;;;;;;0.36;79.49;99884.66;10376094;28;20052;-65
2024/01/14 07:41:12;;;;;;;35.20;20.33;;;;;;;0.40;78.81;99880.97;10333446;28;20126;-63
2024/01/14 07:46:14;;;;;;;32.25;19.85;;;;;;;0.24;79.34;99880.81;10400695;28;20051;-64
2024/01/14 07:51:15;;;;;;;33.28;21.52;;;;;;;0.19;80.35;99877.53;10400475;28;20193;-65
2024/01/14 07:56:18;;;;;;;32.97;20.23;;;;;;;0.13;79.99;99878.66;10396633;28;20115;-63
2024/01/14 08:01:19;;;;;;;32.13;19.98;;;;;;;0.13;80.08;99890.91;10380058;28;20106;-63
2024/01/14 08:06:23;;;;;;;30.58;19.45;;;;;;;0.17;79.92;99874.16;10379157;28;20053;-64
2024/01/14 08:11:24;;;;;;;34.10;19.75;;;;;;;0.17;79.56;99868.91;10401557;28;20045;-63
2024/01/14 08:16:26;;;;;;;32.35;20.92;;;;;;;0.22;80.02;99866.09;10378886;28;20059;-64
2024/01/14 08:21:27;;;;;;;31.92;18.73;;;;;;;0.23;79.83;99858.16;10395204;28;20896;-64
2024/01/14 08:26:29;;;;;;;32.92;19.85;;;;;;;0.18;79.63;99860.13;10401675;28;20414;-64
2024/01/14 08:31:30;;;;;;;31.92;20.00;;;;;;;0.18;79.78;99854.88;10396852;28;20642;-63
2024/01/14 08:36:32;;;;;;;32.28;19.05;;;;;;;0.22;79.68;99839.91;10348508;28;20351;-64
2024/01/14 08:41:33;;;;;;;30.42;18.88;;;;;;;0.31;79.16;99848.19;10397928;28;20056;-64
2024/01/14 08:46:39;;;;;;;29.77;18.77;;;;;;;0.23;79.26;99841.63;10385376;28;20079;-64
2024/01/14 08:51:40;;;;;;;30.83;17.88;;;;;;;0.28;79.04;99840.47;10364373;28;20064;-64
2024/01/14 08:56:42;;;;;;;30.55;18.50;;;;;;;0.41;78.88;99850.44;10391969;28;20112;-65
2024/01/14 09:01:43;;;;;;;30.08;17.50;;;;;;;0.39;78.44;99839.16;10352181;28;20058;-64
2024/01/14 09:06:45;;;;;;;28.08;18.65;;;;;;;0.17;78.96;99837.50;10383968;28;20679;-64
2024/01/14 09:11:46;;;;;;;30.48;18.83;;;;;;;0.26;79.38;99833.63;10384507;28;20053;-64
2024/01/14 09:16:49;;;;;;;29.90;17.45;;;;;;;0.24;79.49;99844.19;10384800;28;20053;-64
2024/01/14 09:21:51;;;;;;;33.38;20.25;;;;;;;0.02;79.18;99809.41;10373719;28;20036;-62
2024/01/14 09:26:52;;;;;;;30.40;18.25;;;;;;;0.17;79.55;99842.75;10394496;28;20054;-64
2024/01/14 09:31:54;;;;;;;29.73;18.15;;;;;;;0.13;79.58;99846.41;10341189;28;20124;-63
2024/01/14 09:36:55;;;;;;;30.83;17.92;;;;;;;0.08;79.70;99849.22;10392236;28;20503;-63
2024/01/14 09:42:14;;;;;;;31.00;20.58;;;;;;;0.14;79.90;99842.88;10395036;28;20061;-63
2024/01/14 09:47:17;;;;;;;31.20;18.88;;;;;;;0.21;79.23;99848.69;10395226;28;21637;-64
2024/01/14 09:52:21;;;;;;;49.42;41.78;;;;;;;0.21;79.05;99851.28;10393448;28;20081;-65
2024/01/14 09:57:24;;;;;;;30.45;17.13;;;;;;;0.19;79.10;99845.28;10391908;28;20049;-64
2024/01/14 10:02:27;;;;;;;30.15;17.25;;;;;;;0.23;79.41;99839.84;10393590;28;20061;-62
2024/01/14 10:07:28;;;;;;;31.92;18.27;;;;;;;0.42;79.14;99839.88;10375591;28;20711;-62
2024/01/14 10:12:32;;;;;;;37.75;28.02;;;;;;;0.37;78.50;99818.28;10399818;28;20055;-64
2024/01/14 10:17:33;;;;;;;25.65;15.95;;;;;;;0.63;78.37;99808.38;10399586;28;20701;-63
2024/01/14 10:22:35;;;;;;;26.10;14.65;;;;;;;0.57;78.33;99809.53;10386514;28;20148;-65
2024/01/14 10:27:38;;;;;;;28.00;17.65;;;;;;;0.55;78.07;99790.41;10370930;28;20096;-62
2024/01/14 10:32:40;;;;;;;28.30;17.45;;;;;;;0.67;78.12;99789.81;10402885;28;20057;-62
2024/01/14 10:38:04;;;;;;;28.45;15.82;;;;;;;0.58;78.05;99773.69;10405632;28;20049;-63
2024/01/14 10:43:08;;;;;;;26.08;15.63;;;;;;;0.77;77.53;99790.25;10377821;28;20706;-63
2024/01/14 10:48:13;;;;;;;29.38;18.00;;;;;;;0.85;77.15;99787.25;10374524;28;20160;-63
2024/01/14 10:53:26;;;;;;;30.38;20.00;;;;;;;0.88;77.11;99768.75;10400127;28;20060;-64
2024/01/14 10:58:30;;;;;;;30.63;18.02;;;;;;;0.83;77.07;99741.94;10394685;28;20068;-63
2024/01/14 11:03:33;;;;;;;30.67;18.52;;;;;;;0.87;76.77;99754.81;10378580;28;20461;-65
2024/01/14 11:08:36;;;;;;;28.48;17.83;;;;;;;0.92;77.27;99749.34;10367956;28;20125;-63
2024/01/14 11:13:55;;;;;;;33.88;19.30;;;;;;;0.74;77.79;99747.63;10403870;28;20082;-64
2024/01/14 11:19:00;;;;;;;32.00;18.73;;;;;;;0.79;77.82;99722.03;10378224;28;20049;-63
2024/01/14 11:24:02;;;;;;;29.63;18.13;;;;;;;0.72;77.95;99712.78;10348791;28;20112;-63
2024/01/14 11:29:04;;;;;;;27.17;15.68;;;;;;;0.81;77.59;99713.19;10402185;28;20056;-65
2024/01/14 11:34:08;;;;;;;29.70;17.10;;;;;;;0.84;77.32;99713.03;10401814;28;20045;-65
2024/01/14 11:39:16;;;;;;;31.85;16.90;;;;;;;0.85;77.46;99690.31;10405897;28;20048;-64
2024/01/14 11:44:30;;;;;;;27.23;16.55;;;;;;;0.91;77.12;99686.53;10381240;28;20202;-63
2024/01/14 11:49:34;;;;;;;25.90;16.67;;;;;;;0.91;77.17;99678.66;10364433;28;20129;-64
2024/01/14 11:54:35;;;;;;;27.88;17.25;;;;;;;0.58;77.49;99648.81;10389845;28;20432;-65
2024/01/14 11:59:37;;;;;;;35.22;20.38;;;;;;;0.69;77.22;99661.38;10376175;28;20520;-64
2024/01/14 12:04:43;;;;;;;32.30;19.23;;;;;;;0.73;77.29;99656.84;10373129;28;20728;-65
2024/01/14 12:09:56;;;;;;;28.80;16.15;;;;;;;0.79;77.37;99641.66;10335132;28;20053;-63
2024/01/14 12:14:57;;;;;;;30.75;19.95;;;;;;;0.88;77.30;99629.88;10344148;28;20045;-63
2024/01/14 12:19:59;;;;;;;31.60;18.67;;;;;;;0.81;77.34;99586.56;10386203;28;20981;-64
2024/01/14 12:25:02;;;;;;;34.65;19.23;;;;;;;1.01;75.54;99614.38;10401371;28;20060;-63
2024/01/14 12:30:04;;;;;;;30.13;17.80;;;;;;;0.81;76.93;99599.66;10386805;28;20596;-64
2024/01/14 12:35:07;;;;;;;32.45;18.38;;;;;;;0.83;76.46;99582.09;10382837;28;20056;-64
2024/01/14 12:40:15;;;;;;;28.30;17.35;;;;;;;0.77;76.38;99566.69;10387428;28;20053;-65
2024/01/14 12:45:16;;;;;;;28.48;17.25;;;;;;;0.69;76.82;99546.97;10379057;28;20756;-64
2024/01/14 12:50:17;;;;;;;28.58;16.98;;;;;;;0.77;76.72;99543.97;10397126;28;20048;-65
2024/01/14 12:55:20;;;;;;;29.85;16.70;;;;;;;0.91;77.14;99545.84;10397398;28;20053;-64
2024/01/14 13:00:23;;;;;;;28.63;17.30;;;;;;;0.94;75.67;99508.16;10352987;28;20054;-63
2024/01/14 13:05:25;;;;;;;29.40;18.55;;;;;;;1.16;75.83;99532.31;10336548;28;20132;-63
2024/01/14 13:10:26;;;;;;;29.88;19.42;;;;;;;1.06;74.84;99515.38;10371233;28;20136;-62
2024/01/14 13:15:28;;;;;;;29.48;18.30;;;;;;;1.14;74.92;99510.59;10397473;28;20148;-63
2024/01/14 13:20:30;;;;;;;30.23;16.95;;;;;;;1.15;75.31;99506.19;10374948;28;20222;-64
2024/01/14 13:25:31;;;;;;;32.20;18.92;;;;;;;1.03;75.38;99492.78;10403519;28;20055;-65
2024/01/14 13:30:33;;;;;;;33.03;19.80;;;;;;;0.91;75.61;99482.13;10377791;28;20054;-63
2024/01/14 13:35:34;;;;;;;26.52;17.08;;;;;;;1.02;75.72;99479.75;10369845;28;20115;-64
2024/01/14 13:40:37;;;;;;;27.80;16.60;;;;;;;1.11;75.26;99473.19;10399801;28;20107;-63
2024/01/14 13:45:39;;;;;;;30.13;19.73;;;;;;;0.99;75.78;99470.31;10392146;28;20057;-64
2024/01/14 13:50:41;;;;;;;27.35;16.70;;;;;;;0.94;76.23;99467.06;10397879;28;20093;-63
2024/01/14 13:55:45;;;;;;;27.15;16.45;;;;;;;0.98;75.51;99463.38;10395222;28;20056;-65
2024/01/14 14:00:49;;;;;;;29.35;16.33;;;;;;;0.97;75.83;99451.19;10366276;28;20057;-64
2024/01/14 14:05:50;;;;;;;23.63;14.50;;;;;;;0.93;75.62;99440.94;10384417;28;20154;-63
2024/01/14 14:10:55;;;;;;;29.20;17.40;;;;;;;0.78;76.11;99453.97;10392035;28;20041;-64
2024/01/14 14:16:04;;;;;;;32.28;17.90;;;;;;;0.82;76.37;99444.16;10375810;28;20151;-65
2024/01/14 14:21:05;;;;;;;38.55;23.55;;;;;;;0.85;76.07;99444.81;10377935;28;20511;-64
2024/01/14 14:26:07;;;;;;;43.63;26.40;;;;;;;0.80;76.17;99448.63;10374191;28;20072;-64
2024/01/14 14:31:08;;;;;;;36.15;21.67;;;;;;;0.81;75.88;99445.06;10391270;28;20053;-63
2024/01/14 14:36:13;;;;;;;;;;;;;;;0.73;76.35;99436.78;10381282;28;20637;-63
2024/01/14 14:41:15;;;;;;;31.13;17.50;;;;;;;0.82;76.68;99436.28;10394677;28;19971;-65
2024/01/14 14:46:30;;;;;;;34.10;20.83;;;;;;;0.82;76.70;99431.06;10378295;28;20056;-62
2024/01/14 14:51:32;;;;;;;28.08;17.27;;;;;;;0.87;75.55;99419.41;10403657;28;20660;-64
2024/01/14 14:56:41;;;;;;;31.23;17.92;;;;;;;0.65;76.82;99417.06;10351236;28;20048;-63
2024/01/14 15:01:42;;;;;;;37.47;21.77;;;;;;;0.64;76.97;99412.75;10399578;28;20148;-63
2024/01/14 15:06:45;;;;;;;26.08;17.83;;;;;;;0.77;76.63;99396.41;10399295;28;20715;-64
2024/01/14 15:11:49;;;;;;;26.98;15.23;;;;;;;0.84;76.70;99397.75;10406123;28;20059;-65
2024/01/14 15:16:51;;;;;;;33.45;21.55;;;;;;;0.93;76.65;99386.78;10401330;28;20057;-65
2024/01/14 15:21:53;;;;;;;24.58;17.17;;;;;;;1.03;76.12;99382.72;10396841;28;20418;-65
2024/01/14 15:26:55;;;;;;;24.42;15.40;;;;;;;1.05;75.09;99373.00;10375581;28;20664;-64
2024/01/14 15:31:57;;;;;;;23.92;13.90;;;;;;;0.92;75.25;99369.38;10399892;28;20073;-63
2024/01/14 15:37:04;;;;;;;24.77;14.63;;;;;;;0.95;75.52;99363.94;10345753;28;20134;-63
2024/01/14 15:42:06;;;;;;;22.15;13.82;;;;;;;0.67;76.20;99365.44;10371366;28;20049;-64
2024/01/14 15:47:07;;;;;;;24.90;15.30;;;;;;;0.66;77.23;99353.28;10390956;28;20064;-65
2024/01/14 15:52:09;;;;;;;25.02;16.88;;;;;;;0.69;76.91;99350.50;10380845;28;20100;-65
2024/01/14 15:57:11;;;;;;;26.65;14.93;;;;;;;0.65;77.17;99338.50;10369009;28;20121;-64
2024/01/14 16:02:13;;;;;;;24.25;15.82;;;;;;;0.75;76.59;99324.88;10374939;28;20084;-63
2024/01/14 16:07:17;;;;;;;24.45;16.20;;;;;;;0.78;75.96;99324.72;10386907;28;20139;-62
2024/01/14 16:12:18;;;;;;;22.65;14.15;;;;;;;0.65;76.37;99319.31;10375032;28;20074;-62
2024/01/14 16:17:23;;;;;;;25.15;14.27;;;;;;;0.52;76.65;99309.47;10400486;28;20088;-62
2024/01/14 16:22:28;;;;;;;20.42;14.07;;;;;;;0.53;76.56;99305.13;10394877;28;20135;-63
2024/01/14 16:27:29;;;;;;;23.63;14.98;;;;;;;0.55;76.79;99298.00;10369035;28;20155;-64
2024/01/14 16:32:31;;;;;;;22.13;14.45;;;;;;;0.43;76.86;99298.69;10400639;28;20052;-63
2024/01/14 16:37:33;;;;;;;23.05;14.63;;;;;;;0.37;76.88;99288.53;10371952;28;20050;-62
2024/01/14 16:42:34;;;;;;;22.98;13.88;;;;;;;0.40;76.96;99283.97;10366468;28;20415;-64
2024/01/14 16:47:36;;;;;;;21.75;13.23;;;;;;;0.43;77.05;99280.34;10368035;28;20057;-63
2024/01/14 16:52:37;;;;;;;20.60;14.27;;;;;;;0.29;77.41;99284.56;10388006;28;20049;-62
2024/01/14 16:57:39;;;;;;;19.20;12.90;;;;;;;0.24;77.50;99263.03;10391467;28;20614;-62
2024/01/14 17:02:41;;;;;;;18.80;12.10;;;;;;;0.29;77.24;99271.47;10369055;28;20060;-62
2024/01/14 17:07:44;;;;;;;18.77;12.45;;;;;;;0.31;77.19;99264.38;10375676;28;20048;-62
2024/01/14 17:12:47;;;;;;;22.67;14.30;;;;;;;0.27;76.61;99262.00;10391456;28;21269;-63
2024/01/14 17:17:49;;;;;;;20.70;13.57;;;;;;;0.34;76.86;99253.72;10392725;28;20032;-62
2024/01/14 17:22:51;;;;;;;23.77;13.38;;;;;;;0.33;76.37;99248.56;10393312;28;20096;-62
2024/01/14 17:27:53;;;;;;;20.33;12.73;;;;;;;0.15;76.66;99212.00;10388660;28;20041;-65
2024/01/14 17:32:55;;;;;;;20.10;13.68;;;;;;;0.36;76.45;99232.69;10367532;28;20163;-63
2024/01/14 17:37:57;;;;;;;23.70;14.80;;;;;;;0.24;76.48;99221.16;10369442;28;20057;-61
2024/01/14 17:42:59;;;;;;;20.02;13.10;;;;;;;0.18;77.08;99208.38;10367145;28;20126;-63
2024/01/14 17:48:00;;;;;;;19.08;12.45;;;;;;;0.11;76.58;99193.94;10392507;28;21026;-61
2024/01/14 17:53:03;;;;;;;22.40;13.68;;;;;;;0.10;77.05;99218.41;10362488;28;20139;-63
2024/01/14 17:58:07;;;;;;;23.37;12.83;;;;;;;0.16;77.04;99207.63;10357803;28;21886;-62
2024/01/14 18:03:09;;;;;;;21.38;13.23;;;;;;;0.09;77.28;99201.88;10373869;28;20053;-62
2024/01/14 18:08:11;;;;;;;19.35;12.30;;;;;;;0.02;77.44;99192.66;10379789;28;20053;-62
2024/01/14 18:13:13;;;;;;;16.98;12.05;;;;;;;0.04;77.65;99192.59;10388343;28;20052;-62
2024/01/14 18:18:16;;;;;;;17.35;12.45;;;;;;;-0.06;77.96;99195.69;10392040;28;20053;-63
2024/01/14 18:23:18;;;;;;;21.35;12.93;;;;;;;0.08;78.11;99186.25;10393924;28;21236;-62
2024/01/14 18:28:20;;;;;;;18.92;13.32;;;;;;;-0.05;77.61;99167.75;10393345;28;20236;-63
2024/01/14 18:33:21;;;;;;;25.65;16.63;;;;;;;-0.02;77.67;99181.50;10375869;28;20068;-62
2024/01/14 18:38:27;;;;;;;21.75;13.10;;;;;;;0.05;77.91;99178.59;10369224;28;20072;-62
2024/01/14 18:43:29;;;;;;;23.95;14.75;;;;;;;0.03;77.89;99170.81;10369640;28;20077;-63
2024/01/14 18:48:31;;;;;;;21.20;13.07;;;;;;;0.05;77.70;99170.72;10351013;28;20114;-62
2024/01/14 18:53:32;;;;;;;23.42;13.48;;;;;;;-0.02;77.42;99178.06;10377250;28;20124;-62
2024/01/14 18:58:34;;;;;;;25.05;15.48;;;;;;;-0.16;77.34;99170.97;10387127;28;20045;-62
2024/01/14 19:03:38;;;;;;;24.20;14.98;;;;;;;-0.12;77.57;99166.38;10390414;28;20675;-63
2024/01/14 19:08:39;;;;;;;24.15;15.20;;;;;;;-0.10;77.10;99159.31;10393868;28;20092;-63
2024/01/14 19:13:42;;;;;;;27.00;17.02;;;;;;;0.10;77.31;99158.22;10387321;28;20370;-62
2024/01/14 19:18:43;;;;;;;29.40;18.65;;;;;;;0.16;76.43;99150.88;10392331;28;20523;-62
2024/01/14 19:23:50;;;;;;;27.35;18.35;;;;;;;0.10;76.13;99150.38;10389313;28;20053;-62
2024/01/14 19:28:51;;;;;;;30.70;17.98;;;;;;;-0.05;76.52;99142.44;10385472;28;20146;-62
2024/01/14 19:33:53;;;;;;;30.23;19.58;;;;;;;-0.08;77.10;99137.34;10362748;28;20447;-60
2024/01/14 19:38:56;;;;;;;32.22;20.13;;;;;;;-0.13;76.79;99139.41;10393200;28;20049;-62
2024/01/14 19:43:57;;;;;;;29.13;19.92;;;;;;;-0.17;77.21;99143.09;10392234;28;20053;-63
2024/01/14 19:48:59;;;;;;;29.55;19.98;;;;;;;-0.14;77.20;99139.47;10377443;28;20108;-62
2024/01/14 19:54:03;;;;;;;35.80;22.35;;;;;;;-0.21;77.32;99146.78;10390157;28;20049;-63
2024/01/14 19:59:09;;;;;;;27.65;18.67;;;;;;;-0.12;76.81;99130.63;10421588;28;20563;-61
2024/01/14 20:04:11;;;;;;;34.65;21.92;;;;;;;-0.31;76.75;99128.16;10443107;28;20048;-62
2024/01/14 20:09:13;;;;;;;31.08;18.75;;;;;;;-0.25;77.05;99119.13;10439789;28;20048;-62
2024/01/14 20:14:14;;;;;;;30.90;18.55;;;;;;;-0.42;77.67;99101.72;10442314;28;20044;-63
2024/01/14 20:19:16;;;;;;;34.80;21.80;;;;;;;-0.31;77.54;99103.78;10420109;28;20094;-62
2024/01/14 20:24:20;;;;;;;30.00;19.83;;;;;;;-0.41;77.24;99101.63;10429655;28;20041;-64
2024/01/14 20:29:22;;;;;;;33.58;19.40;;;;;;;-0.49;77.83;99080.31;10441802;28;20171;-62
2024/01/14 20:34:24;;;;;;;33.13;19.70;;;;;;;-0.47;78.08;99099.34;10444962;28;20059;-62
2024/01/14 20:39:25;;;;;;;31.77;20.20;;;;;;;-0.43;77.45;99102.66;10420473;28;20127;-62
2024/01/14 20:44:27;;;;;;;34.03;20.70;;;;;;;-0.45;78.40;99107.13;10443855;28;20098;-62
2024/01/14 20:49:29;;;;;;;30.67;20.38;;;;;;;-0.27;77.06;99094.81;10420850;28;20060;-62
2024/01/14 20:54:31;;;;;;;29.08;17.92;;;;;;;-0.21;76.71;99094.47;10435215;28;20095;-62
2024/01/14 20:59:35;;;;;;;28.73;18.30;;;;;;;-0.32;76.66;99094.25;10435073;28;20052;-64
2024/01/14 21:04:36;;;;;;;29.70;17.27;;;;;;;-0.27;76.41;99084.38;10441069;28;20129;-61
2024/01/14 21:09:42;;;;;;;28.92;19.08;;;;;;;-0.14;75.12;99074.09;10441824;28;20048;-63
2024/01/14 21:14:44;;;;;;;24.27;14.75;;;;;;;-0.38;75.33;99062.25;10432032;28;20061;-62
2024/01/14 21:19:45;;;;;;;20.00;14.07;;;;;;;-0.34;75.15;99077.81;10441166;28;20170;-63
2024/01/14 21:24:47;;;;;;;21.67;14.30;;;;;;;-0.36;75.07;99070.88;10444279;28;20048;-63
2024/01/14 21:29:48;;;;;;;20.70;13.05;;;;;;;-0.45;74.82;99055.69;10443855;28;20122;-62
2024/01/14 21:34:50;;;;;;;25.55;15.93;;;;;;;-0.49;74.53;99033.25;10440602;28;20137;-64
2024/01/14 21:39:52;;;;;;;18.80;11.77;;;;;;;-0.56;74.57;99037.13;10424023;28;20103;-61
2024/01/14 21:44:57;;;;;;;21.42;13.60;;;;;;;-0.51;74.72;99050.81;10419029;28;20422;-62
2024/01/14 21:50:00;;;;;;;22.35;12.93;;;;;;;-0.74;74.78;99047.63;10396654;28;20128;-63
2024/01/14 21:55:02;;;;;;;18.52;11.90;;;;;;;-0.65;74.75;99058.53;10439636;28;20534;-63
2024/01/14 22:00:05;;;;;;;20.45;12.57;;;;;;;-0.78;75.11;99040.88;10412634;28;20121;-61
2024/01/14 22:05:07;;;;;;;20.88;14.23;;;;;;;-0.74;75.08;99036.34;10429753;28;20053;-61
2024/01/14 22:10:09;;;;;;;20.42;12.27;;;;;;;-0.74;74.82;99044.16;10436050;28;20558;-62
2024/01/14 22:15:11;;;;;;;21.33;13.27;;;;;;;-0.74;74.73;99047.63;10422378;28;20207;-61
2024/01/14 22:20:14;;;;;;;21.88;12.00;;;;;;;-0.78;75.37;99040.88;10438284;28;20090;-61
2024/01/14 22:25:15;;;;;;;21.02;12.18;;;;;;;-0.77;75.70;99034.72;10416939;28;20053;-63
2024/01/14 22:30:17;;;;;;;18.42;12.63;;;;;;;-0.79;75.79;99025.28;10440656;28;20612;-61
2024/01/14 22:35:18;;;;;;;24.73;14.95;;;;;;;-0.75;75.68;99032.03;10437664;28;20756;-62
2024/01/14 22:40:21;;;;;;;21.83;12.75;;;;;;;-0.76;76.13;99036.41;10434383;28;21501;-62
2024/01/14 22:45:23;;;;;;;21.52;13.68;;;;;;;-0.67;75.62;99034.25;10421659;28;20048;-63
2024/01/14 22:50:24;;;;;;;22.48;14.95;;;;;;;-0.73;75.72;99041.47;10436494;28;20570;-62
2024/01/14 22:55:26;;;;;;;26.42;15.60;;;;;;;-0.87;75.96;99049.22;10436424;28;20052;-62
2024/01/14 23:00:28;;;;;;;22.80;15.27;;;;;;;-0.85;76.45;99042.13;10432471;28;20052;-61
2024/01/14 23:05:29;;;;;;;27.00;15.70;;;;;;;-0.90;77.25;99044.16;10431032;28;20628;-62